aviador You're here:

LJCE Decoded Metar

CERKLJE in SLOVENIA
Report Time2018-01-21 06:30:00
UTC Time2018-01-21 06:53:12
Flight Rules lifr LIFR
WindCalm
Visibility4000 m
Phenomena:Mist
Clouds:Overcast 003 Hf
Ceiling300 ft
Temp00°C (ISA -14)
Dew Point00°C (100% RH)
AAT-2.0°C
QNH1002 hPa
Density Alt-738 ft
Elevation508 ft
Report Wrong Elevation
Raw Report
METAR LJCE 210630Z 00000KT 4000 BR OVC003 00/M00 Q1002 RMK YLO=

Extra information for LJCE:More info

Metar Taf Metar & Taf Last 4 Metars F.Rules Stats Wind Profile Meteogram Temp Stats Airport Information Weather charts Add Link Nearby VenuesMetar ALERT Operation Metar Decoded Social comments